Main page
METAR-TAF:

METAR-TAF

Airports :

Mykonos International Airport

Mykonos, Greece

latitude: 37-26-09N, longitude: 025-20-45E, elevation: 123 m

Current weather observation

The report was made 27 minutes ago, at 05:20 UTC
Calm wind
Temperature 27°C
Humidity 70%
Pressure 1006 hPa
Visibility 10 km or more
no clouds below 1500 m and no cumulonimbus

METAR: LGMK 230520Z 00000KT CAVOK 27/21 Q1006

Time: 08:47 (05:47 UTC)

Forecast

The report was made 47 minutes ago, at 05:00 UTC
Forecast valid from 23 at 06 UTC to 23 at 15 UTC
Wind 12 kt from the West
Visibility 10 km or more
no clouds below 1500 m and no cumulonimbus

TAF: LGMK 230500Z 2306/2315 26012KT CAVOK

Weather observations and forecasts of more than 4000 airports (METAR and TAF reports).

The available stations are represented by yellow and red dots on the map.

Hover mouse over dot to see the name of the station.

Then click to see weather observations and forecasts.

To change the map : click on the green buttons with a black cross to zoom in, on the green button with a dash to zoom out, or on the green arrows for adjacent maps.


METAR-TAF: